CTV320 WIBB-WIHH
Flight info
| Callsign | CTV320 |
|---|---|
| Flight time | 1h 30m |
| Altitude | 37000 |
| Route | JATAM A585 PLB G461 BIDAK |
| Aircraft | A320/M-SDE3FGHIRWY/LB1 |
Departure
| Time | 2026-05-03 22:19 |
|---|---|
| Airport | Sultan Syarif Kasim II International Airport / Roesmin Nurjadin AFB (WIBB) |
Arrival
| Time | 2026-05-03 23:50 |
|---|---|
| Airport | Halim Perdanakusuma International Airport (WIHH) |
| Time | Latitude | Longitude | Altitude | Speed | Heading |
|---|---|---|---|---|---|
| 2026-05-03 22:01 | 0.46433 | 101.44690 | 147 ft | 0 kts | 90° |
| 2026-05-03 22:11 | 0.46433 | 101.44673 | 147 ft | 4 kts | 90° |
| 2026-05-03 22:11 | 0.46433 | 101.44651 | 147 ft | 4 kts | 88° |
| 2026-05-03 22:11 | 0.46430 | 101.44624 | 146 ft | 4 kts | 77° |
| 2026-05-03 22:12 | 0.46422 | 101.44599 | 146 ft | 4 kts | 59° |
| 2026-05-03 22:12 | 0.46413 | 101.44587 | 146 ft | 1 kts | 51° |
| 2026-05-03 22:12 | 0.46412 | 101.44586 | 146 ft | 0 kts | 51° |
| 2026-05-03 22:14 | 0.46429 | 101.44589 | 146 ft | 8 kts | 6° |
| 2026-05-03 22:15 | 0.46488 | 101.44590 | 146 ft | 8 kts | 1° |
| 2026-05-03 22:15 | 0.46536 | 101.44591 | 146 ft | 6 kts | 1° |
| 2026-05-03 22:15 | 0.46580 | 101.44592 | 147 ft | 6 kts | 1° |
| 2026-05-03 22:15 | 0.46613 | 101.44592 | 147 ft | 3 kts | 355° |
| 2026-05-03 22:16 | 0.46622 | 101.44583 | 148 ft | 2 kts | 312° |
| 2026-05-03 22:16 | 0.46634 | 101.44552 | 148 ft | 5 kts | 280° |
| 2026-05-03 22:16 | 0.46635 | 101.44522 | 148 ft | 4 kts | 271° |
| 2026-05-03 22:16 | 0.46642 | 101.44488 | 148 ft | 10 kts | 296° |
| 2026-05-03 22:17 | 0.46736 | 101.44470 | 150 ft | 17 kts | 2° |
| 2026-05-03 22:17 | 0.46845 | 101.44473 | 150 ft | 15 kts | 2° |
| 2026-05-03 22:17 | 0.46942 | 101.44475 | 150 ft | 13 kts | 0° |
| 2026-05-03 22:17 | 0.47030 | 101.44492 | 149 ft | 13 kts | 25° |
| 2026-05-03 22:18 | 0.47073 | 101.44481 | 148 ft | 2 kts | 223° |
| 2026-05-03 22:18 | 0.47049 | 101.44479 | 149 ft | 3 kts | 183° |
| 2026-05-03 22:18 | 0.47042 | 101.44479 | 149 ft | 0 kts | 182° |
| 2026-05-03 22:18 | 0.46996 | 101.44477 | 149 ft | 31 kts | 182° |
| 2026-05-03 22:19 | 0.46523 | 101.44463 | 147 ft | 102 kts | 181° |
| 2026-05-03 22:19 | 0.45619 | 101.44438 | 134 ft | 156 kts | 181° |
| 2026-05-03 22:19 | 0.44500 | 101.44418 | 672 ft | 159 kts | 182° |
| 2026-05-03 22:19 | 0.43372 | 101.44376 | 1260 ft | 164 kts | 182° |
| 2026-05-03 22:20 | 0.42147 | 101.44331 | 1541 ft | 190 kts | 181° |
| 2026-05-03 22:20 | 0.40804 | 101.44638 | 1788 ft | 215 kts | 146° |
| 2026-05-03 22:20 | 0.39645 | 101.45710 | 2146 ft | 240 kts | 130° |
| 2026-05-03 22:20 | 0.38563 | 101.47081 | 2610 ft | 260 kts | 127° |
| 2026-05-03 22:21 | 0.37472 | 101.48564 | 3366 ft | 268 kts | 127° |
| 2026-05-03 22:21 | 0.36350 | 101.50069 | 4170 ft | 273 kts | 128° |
| 2026-05-03 22:21 | 0.35194 | 101.51566 | 4988 ft | 277 kts | 128° |
| 2026-05-03 22:21 | 0.33988 | 101.53081 | 5810 ft | 280 kts | 129° |
| 2026-05-03 22:22 | 0.32751 | 101.54598 | 6601 ft | 284 kts | 130° |
| 2026-05-03 22:22 | 0.31487 | 101.56123 | 7382 ft | 286 kts | 130° |
| 2026-05-03 22:22 | 0.30206 | 101.57655 | 8161 ft | 288 kts | 130° |
| 2026-05-03 22:22 | 0.28914 | 101.59201 | 8957 ft | 290 kts | 130° |
| 2026-05-03 22:23 | 0.27610 | 101.60759 | 9708 ft | 295 kts | 130° |
| 2026-05-03 22:23 | 0.26288 | 101.62337 | 9949 ft | 296 kts | 130° |
| 2026-05-03 22:23 | 0.24943 | 101.63944 | 10022 ft | 314 kts | 130° |
| 2026-05-03 22:23 | 0.23520 | 101.65644 | 10023 ft | 314 kts | 130° |
| 2026-05-03 22:24 | 0.22096 | 101.67347 | 10027 ft | 317 kts | 130° |
| 2026-05-03 22:24 | 0.20676 | 101.69049 | 10033 ft | 321 kts | 130° |
| 2026-05-03 22:24 | 0.19264 | 101.70742 | 10034 ft | 320 kts | 130° |
| 2026-05-03 22:24 | 0.17825 | 101.72469 | 10485 ft | 331 kts | 130° |
| 2026-05-03 22:25 | 0.16303 | 101.74293 | 10709 ft | 351 kts | 130° |
| 2026-05-03 22:25 | 0.14719 | 101.76191 | 11202 ft | 358 kts | 130° |
| 2026-05-03 22:25 | 0.13110 | 101.78116 | 11821 ft | 362 kts | 129° |
| 2026-05-03 22:25 | 0.11491 | 101.80052 | 12449 ft | 365 kts | 130° |
| 2026-05-03 22:26 | 0.09835 | 101.81997 | 13073 ft | 368 kts | 130° |
| 2026-05-03 22:26 | 0.08155 | 101.83940 | 13691 ft | 371 kts | 130° |
| 2026-05-03 22:26 | 0.06451 | 101.85895 | 14230 ft | 374 kts | 130° |
| 2026-05-03 22:26 | 0.04731 | 101.87864 | 14758 ft | 377 kts | 130° |
| 2026-05-03 22:27 | 0.02998 | 101.89849 | 15289 ft | 380 kts | 130° |
| 2026-05-03 22:27 | 0.01255 | 101.91850 | 15809 ft | 383 kts | 130° |
| 2026-05-03 22:27 | -0.00498 | 101.93869 | 16315 ft | 386 kts | 130° |
| 2026-05-03 22:27 | -0.02263 | 101.95905 | 16816 ft | 389 kts | 130° |
| 2026-05-03 22:28 | -0.04040 | 101.97958 | 17318 ft | 392 kts | 130° |
| 2026-05-03 22:28 | -0.05826 | 102.00022 | 17809 ft | 394 kts | 130° |
| 2026-05-03 22:28 | -0.07629 | 102.02107 | 18273 ft | 397 kts | 130° |
| 2026-05-03 22:28 | -0.09440 | 102.04202 | 18673 ft | 400 kts | 130° |
| 2026-05-03 22:29 | -0.11238 | 102.06279 | 18853 ft | 401 kts | 130° |
| 2026-05-03 22:29 | -0.13066 | 102.08389 | 18893 ft | 401 kts | 130° |
| 2026-05-03 22:29 | -0.14892 | 102.10493 | 18896 ft | 401 kts | 130° |
| 2026-05-03 22:29 | -0.16721 | 102.12600 | 18899 ft | 401 kts | 130° |
| 2026-05-03 22:30 | -0.18547 | 102.14702 | 18897 ft | 400 kts | 130° |
| 2026-05-03 22:30 | -0.20377 | 102.16808 | 18899 ft | 400 kts | 130° |
| 2026-05-03 22:30 | -0.22204 | 102.18914 | 18899 ft | 400 kts | 130° |
| 2026-05-03 22:30 | -0.24027 | 102.21019 | 18899 ft | 400 kts | 130° |
| 2026-05-03 22:31 | -0.25850 | 102.23119 | 18899 ft | 400 kts | 130° |
| 2026-05-03 22:31 | -0.27679 | 102.25221 | 18896 ft | 400 kts | 130° |
| 2026-05-03 22:31 | -0.29484 | 102.27294 | 18899 ft | 400 kts | 130° |
| 2026-05-03 22:31 | -0.31308 | 102.29394 | 18899 ft | 400 kts | 130° |
| 2026-05-03 22:32 | -0.33136 | 102.31501 | 18912 ft | 401 kts | 130° |
| 2026-05-03 22:32 | -0.34975 | 102.33623 | 19297 ft | 404 kts | 130° |
| 2026-05-03 22:32 | -0.36819 | 102.35753 | 19722 ft | 406 kts | 130° |
| 2026-05-03 22:32 | -0.38677 | 102.37898 | 20144 ft | 409 kts | 130° |
| 2026-05-03 22:33 | -0.40542 | 102.40050 | 20540 ft | 411 kts | 130° |
| 2026-05-03 22:33 | -0.42417 | 102.42217 | 20922 ft | 413 kts | 130° |
| 2026-05-03 22:33 | -0.44304 | 102.44396 | 21303 ft | 416 kts | 130° |
| 2026-05-03 22:33 | -0.46206 | 102.46596 | 21688 ft | 418 kts | 130° |
| 2026-05-03 22:34 | -0.48114 | 102.48802 | 22058 ft | 421 kts | 130° |
| 2026-05-03 22:34 | -0.50017 | 102.50996 | 22420 ft | 423 kts | 130° |
| 2026-05-03 22:34 | -0.51961 | 102.53224 | 22785 ft | 426 kts | 130° |
| 2026-05-03 22:34 | -0.53917 | 102.55461 | 23147 ft | 428 kts | 130° |
| 2026-05-03 22:35 | -0.55884 | 102.57705 | 23500 ft | 430 kts | 130° |
| 2026-05-03 22:35 | -0.57863 | 102.59965 | 23788 ft | 433 kts | 130° |
| 2026-05-03 22:35 | -0.59852 | 102.62241 | 24086 ft | 435 kts | 130° |
| 2026-05-03 22:35 | -0.61846 | 102.64529 | 24378 ft | 436 kts | 130° |
| 2026-05-03 22:36 | -0.63822 | 102.66794 | 24664 ft | 438 kts | 130° |
| 2026-05-03 22:36 | -0.65825 | 102.69095 | 24938 ft | 440 kts | 130° |
| 2026-05-03 22:36 | -0.67847 | 102.71416 | 25213 ft | 442 kts | 130° |
| 2026-05-03 22:36 | -0.69873 | 102.73740 | 25481 ft | 444 kts | 130° |
| 2026-05-03 22:37 | -0.71910 | 102.76072 | 25754 ft | 446 kts | 130° |
| 2026-05-03 22:37 | -0.74113 | 102.78264 | 26021 ft | 449 kts | 140° |
| 2026-05-03 22:37 | -0.76673 | 102.80060 | 26286 ft | 452 kts | 149° |
| 2026-05-03 22:37 | -0.79503 | 102.81389 | 26545 ft | 455 kts | 159° |
| 2026-05-03 22:38 | -0.82540 | 102.82312 | 26798 ft | 457 kts | 163° |
| 2026-05-03 22:38 | -0.85612 | 102.83192 | 27055 ft | 459 kts | 163° |
| 2026-05-03 22:38 | -0.88695 | 102.84078 | 27310 ft | 461 kts | 163° |
| 2026-05-03 22:38 | -0.90739 | 102.84667 | 27474 ft | 462 kts | 163° |
| 2026-05-03 22:39 | -0.93839 | 102.85566 | 27715 ft | 464 kts | 162° |
| 2026-05-03 22:39 | -0.97964 | 102.86768 | 28026 ft | 467 kts | 162° |
| 2026-05-03 22:39 | -1.01085 | 102.87675 | 28257 ft | 468 kts | 162° |
| 2026-05-03 22:39 | -1.03168 | 102.88296 | 28409 ft | 469 kts | 160° |
| 2026-05-03 22:40 | -1.06173 | 102.89569 | 28629 ft | 469 kts | 151° |
| 2026-05-03 22:40 | -1.08937 | 102.91314 | 28846 ft | 470 kts | 141° |
| 2026-05-03 22:40 | -1.11391 | 102.93469 | 29060 ft | 470 kts | 134° |
| 2026-05-03 22:40 | -1.13733 | 102.95763 | 29262 ft | 472 kts | 135° |
| 2026-05-03 22:41 | -1.16085 | 102.98065 | 29496 ft | 474 kts | 135° |
| 2026-05-03 22:41 | -1.18439 | 103.00363 | 29809 ft | 473 kts | 135° |
| 2026-05-03 22:41 | -1.20798 | 103.02657 | 30109 ft | 472 kts | 135° |
| 2026-05-03 22:41 | -1.23152 | 103.04943 | 30381 ft | 471 kts | 135° |
| 2026-05-03 22:42 | -1.25500 | 103.07222 | 30662 ft | 471 kts | 135° |
| 2026-05-03 22:42 | -1.27848 | 103.09504 | 30944 ft | 470 kts | 135° |
| 2026-05-03 22:42 | -1.30186 | 103.11780 | 31231 ft | 469 kts | 135° |
| 2026-05-03 22:42 | -1.32520 | 103.14048 | 31519 ft | 468 kts | 135° |
| 2026-05-03 22:43 | -1.34824 | 103.16286 | 31805 ft | 467 kts | 135° |
| 2026-05-03 22:43 | -1.37182 | 103.18575 | 32095 ft | 466 kts | 135° |
| 2026-05-03 22:43 | -1.39477 | 103.20805 | 32378 ft | 466 kts | 135° |
| 2026-05-03 22:43 | -1.41799 | 103.23060 | 32670 ft | 465 kts | 135° |
| 2026-05-03 22:44 | -1.44118 | 103.25315 | 32965 ft | 464 kts | 135° |
| 2026-05-03 22:44 | -1.46428 | 103.27565 | 33262 ft | 463 kts | 135° |
| 2026-05-03 22:44 | -1.48739 | 103.29815 | 33554 ft | 462 kts | 135° |
| 2026-05-03 22:44 | -1.51038 | 103.32054 | 33872 ft | 461 kts | 135° |
| 2026-05-03 22:45 | -1.53338 | 103.34292 | 34152 ft | 460 kts | 135° |
| 2026-05-03 22:45 | -1.55627 | 103.36521 | 34417 ft | 459 kts | 135° |
| 2026-05-03 22:45 | -1.57886 | 103.38716 | 34668 ft | 458 kts | 135° |
| 2026-05-03 22:45 | -1.60165 | 103.40934 | 34922 ft | 457 kts | 135° |
| 2026-05-03 22:46 | -1.62445 | 103.43150 | 35170 ft | 456 kts | 135° |
| 2026-05-03 22:46 | -1.64722 | 103.45363 | 35410 ft | 456 kts | 135° |
| 2026-05-03 22:46 | -1.66992 | 103.47573 | 35648 ft | 455 kts | 135° |
| 2026-05-03 22:46 | -1.69257 | 103.49779 | 35881 ft | 454 kts | 135° |
| 2026-05-03 22:47 | -1.71522 | 103.51984 | 36110 ft | 453 kts | 135° |
| 2026-05-03 22:47 | -1.73781 | 103.54183 | 36333 ft | 453 kts | 135° |
| 2026-05-03 22:47 | -1.76043 | 103.56382 | 36546 ft | 452 kts | 135° |
| 2026-05-03 22:47 | -1.78296 | 103.58569 | 36762 ft | 451 kts | 135° |
| 2026-05-03 22:48 | -1.80548 | 103.60759 | 36874 ft | 452 kts | 135° |
| 2026-05-03 22:48 | -1.85065 | 103.65159 | 36893 ft | 453 kts | 135° |
| 2026-05-03 22:49 | -1.89586 | 103.69564 | 36893 ft | 455 kts | 135° |
| 2026-05-03 22:49 | -1.94097 | 103.73945 | 36893 ft | 455 kts | 135° |
| 2026-05-03 22:50 | -1.98641 | 103.78370 | 36892 ft | 455 kts | 135° |
| 2026-05-03 22:50 | -2.03182 | 103.82799 | 36894 ft | 456 kts | 135° |
| 2026-05-03 22:51 | -2.07728 | 103.87224 | 36899 ft | 456 kts | 135° |
| 2026-05-03 22:51 | -2.12276 | 103.91652 | 36906 ft | 456 kts | 135° |
| 2026-05-03 22:52 | -2.16796 | 103.96055 | 36907 ft | 456 kts | 135° |
| 2026-05-03 22:52 | -2.21336 | 104.00479 | 36907 ft | 456 kts | 135° |
| 2026-05-03 22:53 | -2.25881 | 104.04901 | 36905 ft | 456 kts | 135° |
| 2026-05-03 22:53 | -2.30428 | 104.09330 | 36903 ft | 456 kts | 135° |
| 2026-05-03 22:54 | -2.34973 | 104.13761 | 36904 ft | 456 kts | 135° |
| 2026-05-03 22:54 | -2.39526 | 104.18192 | 36904 ft | 457 kts | 135° |
| 2026-05-03 22:55 | -2.44085 | 104.22631 | 36904 ft | 457 kts | 134° |
| 2026-05-03 22:55 | -2.48610 | 104.27041 | 36908 ft | 456 kts | 134° |
| 2026-05-03 22:56 | -2.53147 | 104.31469 | 36909 ft | 456 kts | 134° |
| 2026-05-03 22:56 | -2.57686 | 104.35900 | 36906 ft | 456 kts | 134° |
| 2026-05-03 22:57 | -2.62224 | 104.40322 | 36901 ft | 456 kts | 135° |
| 2026-05-03 22:57 | -2.66781 | 104.44763 | 36899 ft | 457 kts | 135° |
| 2026-05-03 22:58 | -2.71342 | 104.49209 | 36896 ft | 458 kts | 135° |
| 2026-05-03 22:58 | -2.75881 | 104.53630 | 36898 ft | 458 kts | 135° |
| 2026-05-03 22:59 | -2.80450 | 104.58084 | 36900 ft | 458 kts | 135° |
| 2026-05-03 22:59 | -2.85016 | 104.62541 | 36910 ft | 458 kts | 135° |
| 2026-05-03 23:00 | -2.89413 | 104.67148 | 36908 ft | 458 kts | 129° |
| 2026-05-03 23:00 | -2.93523 | 104.72021 | 36910 ft | 458 kts | 129° |
| 2026-05-03 23:01 | -2.97634 | 104.76889 | 36909 ft | 458 kts | 129° |
| 2026-05-03 23:01 | -3.01749 | 104.81763 | 36905 ft | 459 kts | 129° |
| 2026-05-03 23:02 | -3.05868 | 104.86644 | 36903 ft | 459 kts | 129° |
| 2026-05-03 23:02 | -3.09984 | 104.91530 | 36901 ft | 459 kts | 129° |
| 2026-05-03 23:03 | -3.14081 | 104.96384 | 36892 ft | 458 kts | 129° |
| 2026-05-03 23:03 | -3.18192 | 105.01256 | 36903 ft | 458 kts | 129° |
| 2026-05-03 23:04 | -3.22301 | 105.06120 | 36906 ft | 457 kts | 129° |
| 2026-05-03 23:04 | -3.26407 | 105.10980 | 36909 ft | 457 kts | 129° |
| 2026-05-03 23:05 | -3.30509 | 105.15852 | 36908 ft | 457 kts | 129° |
| 2026-05-03 23:05 | -3.34605 | 105.20724 | 36909 ft | 456 kts | 129° |
| 2026-05-03 23:06 | -3.38695 | 105.25583 | 36908 ft | 456 kts | 129° |
| 2026-05-03 23:06 | -3.42759 | 105.30401 | 36910 ft | 456 kts | 129° |
| 2026-05-03 23:07 | -3.46856 | 105.35253 | 36912 ft | 456 kts | 129° |
| 2026-05-03 23:07 | -3.50947 | 105.40104 | 36913 ft | 456 kts | 129° |
| 2026-05-03 23:08 | -3.55038 | 105.44962 | 36907 ft | 456 kts | 129° |
| 2026-05-03 23:08 | -3.59118 | 105.49814 | 36907 ft | 455 kts | 129° |
| 2026-05-03 23:09 | -3.63207 | 105.54661 | 36907 ft | 455 kts | 129° |
| 2026-05-03 23:09 | -3.67272 | 105.59475 | 36909 ft | 455 kts | 129° |
| 2026-05-03 23:10 | -3.71364 | 105.64325 | 36914 ft | 455 kts | 129° |
| 2026-05-03 23:10 | -3.75443 | 105.69161 | 36916 ft | 454 kts | 129° |
| 2026-05-03 23:11 | -3.79514 | 105.73981 | 36916 ft | 453 kts | 129° |
| 2026-05-03 23:11 | -3.83585 | 105.78806 | 36914 ft | 453 kts | 129° |
| 2026-05-03 23:12 | -3.87619 | 105.83596 | 36910 ft | 452 kts | 129° |
| 2026-05-03 23:12 | -3.91677 | 105.88409 | 36910 ft | 452 kts | 129° |
| 2026-05-03 23:13 | -3.95739 | 105.93214 | 36911 ft | 452 kts | 129° |
| 2026-05-03 23:13 | -3.99806 | 105.98037 | 36907 ft | 452 kts | 129° |
| 2026-05-03 23:14 | -4.03826 | 106.02881 | 36898 ft | 452 kts | 124° |
| 2026-05-03 23:14 | -4.07045 | 106.08238 | 36900 ft | 451 kts | 119° |
| 2026-05-03 23:15 | -4.10196 | 106.13686 | 36901 ft | 452 kts | 119° |
| 2026-05-03 23:15 | -4.13347 | 106.19120 | 36904 ft | 452 kts | 119° |
| 2026-05-03 23:16 | -4.16514 | 106.24590 | 36907 ft | 452 kts | 119° |
| 2026-05-03 23:16 | -4.19666 | 106.30018 | 36909 ft | 450 kts | 120° |
| 2026-05-03 23:16 | -4.21531 | 106.32479 | 36906 ft | 450 kts | 136° |
| 2026-05-03 23:17 | -4.23988 | 106.34504 | 36909 ft | 452 kts | 142° |
| 2026-05-03 23:17 | -4.28888 | 106.38379 | 36897 ft | 452 kts | 131° |
| 2026-05-03 23:17 | -4.30740 | 106.40905 | 36892 ft | 450 kts | 117° |
| 2026-05-03 23:18 | -4.32177 | 106.43700 | 36892 ft | 451 kts | 116° |
| 2026-05-03 23:18 | -4.34996 | 106.49320 | 36892 ft | 452 kts | 116° |
| 2026-05-03 23:19 | -4.37813 | 106.54953 | 36893 ft | 452 kts | 116° |
| 2026-05-03 23:19 | -4.40650 | 106.60587 | 36894 ft | 453 kts | 116° |
| 2026-05-03 23:20 | -4.43493 | 106.66239 | 36898 ft | 454 kts | 116° |
| 2026-05-03 23:20 | -4.46332 | 106.71887 | 36900 ft | 454 kts | 116° |
| 2026-05-03 23:21 | -4.49178 | 106.77545 | 36903 ft | 455 kts | 116° |
| 2026-05-03 23:21 | -4.52008 | 106.83174 | 36905 ft | 455 kts | 116° |
| 2026-05-03 23:22 | -4.56288 | 106.91682 | 36907 ft | 455 kts | 116° |
| 2026-05-03 23:22 | -4.59138 | 106.97359 | 36909 ft | 455 kts | 116° |
| 2026-05-03 23:23 | -4.62505 | 107.02712 | 36907 ft | 456 kts | 132° |
| 2026-05-03 23:23 | -4.64835 | 107.04820 | 36903 ft | 457 kts | 143° |
| 2026-05-03 23:23 | -4.66640 | 107.05992 | 36905 ft | 458 kts | 150° |
| 2026-05-03 23:24 | -4.70556 | 107.07574 | 36907 ft | 459 kts | 165° |
| 2026-05-03 23:24 | -4.73683 | 107.08254 | 36900 ft | 460 kts | 167° |
| 2026-05-03 23:24 | -4.79959 | 107.09563 | 36903 ft | 460 kts | 167° |
| 2026-05-03 23:25 | -4.85167 | 107.10652 | 36902 ft | 460 kts | 167° |
| 2026-05-03 23:25 | -4.92506 | 107.12203 | 36821 ft | 460 kts | 167° |
| 2026-05-03 23:26 | -4.94564 | 107.12637 | 36655 ft | 456 kts | 167° |
| 2026-05-03 23:26 | -4.97659 | 107.13288 | 36410 ft | 452 kts | 167° |
| 2026-05-03 23:26 | -5.00737 | 107.13934 | 35899 ft | 452 kts | 167° |
| 2026-05-03 23:26 | -5.04828 | 107.14797 | 35166 ft | 450 kts | 167° |
| 2026-05-03 23:27 | -5.06890 | 107.15232 | 34855 ft | 447 kts | 167° |
| 2026-05-03 23:27 | -5.10904 | 107.16077 | 34223 ft | 443 kts | 167° |
| 2026-05-03 23:27 | -5.12938 | 107.16504 | 33898 ft | 441 kts | 167° |
| 2026-05-03 23:27 | -5.15938 | 107.17133 | 33374 ft | 438 kts | 167° |
| 2026-05-03 23:28 | -5.18915 | 107.17758 | 32870 ft | 435 kts | 167° |
| 2026-05-03 23:28 | -5.21831 | 107.18372 | 32239 ft | 430 kts | 166° |
| 2026-05-03 23:28 | -5.24824 | 107.19004 | 30643 ft | 443 kts | 166° |
| 2026-05-03 23:28 | -5.27911 | 107.19659 | 28691 ft | 462 kts | 166° |
| 2026-05-03 23:29 | -5.31083 | 107.20331 | 27009 ft | 469 kts | 166° |
| 2026-05-03 23:29 | -5.34163 | 107.21233 | 25894 ft | 462 kts | 156° |
| 2026-05-03 23:29 | -5.36976 | 107.22603 | 25553 ft | 439 kts | 148° |
| 2026-05-03 23:29 | -5.39515 | 107.24278 | 24906 ft | 435 kts | 143° |
| 2026-05-03 23:30 | -5.41991 | 107.26027 | 24225 ft | 434 kts | 143° |
| 2026-05-03 23:30 | -5.44449 | 107.27785 | 23578 ft | 433 kts | 143° |
| 2026-05-03 23:30 | -5.46893 | 107.29545 | 22842 ft | 431 kts | 143° |
| 2026-05-03 23:30 | -5.49324 | 107.31298 | 22227 ft | 427 kts | 143° |
| 2026-05-03 23:31 | -5.51699 | 107.33011 | 21652 ft | 423 kts | 143° |
| 2026-05-03 23:31 | -5.54102 | 107.34741 | 21084 ft | 418 kts | 143° |
| 2026-05-03 23:31 | -5.56408 | 107.36399 | 20885 ft | 403 kts | 143° |
| 2026-05-03 23:31 | -5.58618 | 107.37982 | 20752 ft | 376 kts | 143° |
| 2026-05-03 23:32 | -5.60682 | 107.39461 | 20492 ft | 356 kts | 143° |
| 2026-05-03 23:32 | -5.62673 | 107.40891 | 19941 ft | 347 kts | 143° |
| 2026-05-03 23:32 | -5.64620 | 107.42294 | 19320 ft | 342 kts | 142° |
| 2026-05-03 23:32 | -5.66539 | 107.43682 | 18691 ft | 338 kts | 142° |
| 2026-05-03 23:33 | -5.68438 | 107.45053 | 18056 ft | 335 kts | 142° |
| 2026-05-03 23:33 | -5.70321 | 107.46408 | 17415 ft | 330 kts | 143° |
| 2026-05-03 23:33 | -5.72171 | 107.47736 | 16948 ft | 324 kts | 143° |
| 2026-05-03 23:33 | -5.74012 | 107.49056 | 16491 ft | 325 kts | 142° |
| 2026-05-03 23:34 | -5.75859 | 107.50384 | 16063 ft | 326 kts | 143° |
| 2026-05-03 23:34 | -5.77701 | 107.51711 | 15644 ft | 327 kts | 143° |
| 2026-05-03 23:34 | -5.79503 | 107.53010 | 15179 ft | 320 kts | 143° |
| 2026-05-03 23:34 | -5.81296 | 107.54301 | 14694 ft | 314 kts | 143° |
| 2026-05-03 23:35 | -5.83056 | 107.55564 | 14226 ft | 308 kts | 143° |
| 2026-05-03 23:35 | -5.84782 | 107.56804 | 13788 ft | 306 kts | 143° |
| 2026-05-03 23:35 | -5.86528 | 107.58062 | 13271 ft | 308 kts | 143° |
| 2026-05-03 23:35 | -5.88274 | 107.59319 | 12814 ft | 310 kts | 143° |
| 2026-05-03 23:36 | -5.90023 | 107.60574 | 12481 ft | 307 kts | 143° |
| 2026-05-03 23:36 | -5.91775 | 107.61826 | 12098 ft | 307 kts | 145° |
| 2026-05-03 23:36 | -5.93686 | 107.62710 | 11645 ft | 303 kts | 167° |
| 2026-05-03 23:36 | -5.95772 | 107.62755 | 11052 ft | 303 kts | 191° |
| 2026-05-03 23:37 | -5.97688 | 107.61934 | 10731 ft | 301 kts | 214° |
| 2026-05-03 23:37 | -5.99157 | 107.60431 | 10477 ft | 304 kts | 234° |
| 2026-05-03 23:37 | -6.00333 | 107.58670 | 10216 ft | 303 kts | 236° |
| 2026-05-03 23:37 | -6.01489 | 107.56906 | 9960 ft | 302 kts | 235° |
| 2026-05-03 23:38 | -6.02637 | 107.55145 | 9706 ft | 301 kts | 235° |
| 2026-05-03 23:38 | -6.03770 | 107.53402 | 9282 ft | 302 kts | 235° |
| 2026-05-03 23:38 | -6.04925 | 107.51630 | 8906 ft | 301 kts | 236° |
| 2026-05-03 23:38 | -6.06065 | 107.49880 | 8545 ft | 298 kts | 236° |
| 2026-05-03 23:39 | -6.07197 | 107.48145 | 8218 ft | 295 kts | 235° |
| 2026-05-03 23:39 | -6.08316 | 107.46433 | 7939 ft | 292 kts | 236° |
| 2026-05-03 23:39 | -6.09434 | 107.44724 | 7659 ft | 291 kts | 235° |
| 2026-05-03 23:39 | -6.10526 | 107.43050 | 7386 ft | 289 kts | 235° |
| 2026-05-03 23:40 | -6.11625 | 107.41362 | 7108 ft | 288 kts | 235° |
| 2026-05-03 23:40 | -6.12723 | 107.39677 | 6838 ft | 287 kts | 236° |
| 2026-05-03 23:40 | -6.13806 | 107.38019 | 6662 ft | 278 kts | 235° |
| 2026-05-03 23:40 | -6.14847 | 107.36425 | 6542 ft | 266 kts | 235° |
| 2026-05-03 23:41 | -6.15840 | 107.34904 | 6440 ft | 254 kts | 235° |
| 2026-05-03 23:41 | -6.16790 | 107.33447 | 6328 ft | 245 kts | 235° |
| 2026-05-03 23:41 | -6.17717 | 107.32026 | 6216 ft | 242 kts | 236° |
| 2026-05-03 23:41 | -6.18635 | 107.30619 | 6112 ft | 240 kts | 236° |
| 2026-05-03 23:42 | -6.19454 | 107.29189 | 5997 ft | 240 kts | 249° |
| 2026-05-03 23:42 | -6.19763 | 107.27546 | 5798 ft | 240 kts | 265° |
| 2026-05-03 23:42 | -6.19894 | 107.25876 | 5571 ft | 239 kts | 264° |
| 2026-05-03 23:42 | -6.20027 | 107.24207 | 5349 ft | 239 kts | 264° |
| 2026-05-03 23:43 | -6.20160 | 107.22551 | 5127 ft | 237 kts | 264° |
| 2026-05-03 23:43 | -6.20293 | 107.20908 | 4912 ft | 234 kts | 264° |
| 2026-05-03 23:43 | -6.20424 | 107.19292 | 4697 ft | 231 kts | 264° |
| 2026-05-03 23:43 | -6.20555 | 107.17692 | 4464 ft | 228 kts | 264° |
| 2026-05-03 23:44 | -6.20685 | 107.16116 | 4269 ft | 225 kts | 264° |
| 2026-05-03 23:44 | -6.20814 | 107.14556 | 4063 ft | 222 kts | 264° |
| 2026-05-03 23:44 | -6.20941 | 107.13020 | 3850 ft | 219 kts | 264° |
| 2026-05-03 23:44 | -6.21066 | 107.11504 | 3660 ft | 216 kts | 264° |
| 2026-05-03 23:45 | -6.21188 | 107.10029 | 3464 ft | 213 kts | 264° |
| 2026-05-03 23:45 | -6.21307 | 107.08563 | 3292 ft | 206 kts | 264° |
| 2026-05-03 23:45 | -6.21422 | 107.07160 | 3088 ft | 198 kts | 264° |
| 2026-05-03 23:45 | -6.21534 | 107.05804 | 2898 ft | 191 kts | 264° |
| 2026-05-03 23:46 | -6.21642 | 107.04499 | 2724 ft | 184 kts | 264° |
| 2026-05-03 23:46 | -6.21747 | 107.03239 | 2557 ft | 178 kts | 264° |
| 2026-05-03 23:46 | -6.21848 | 107.02027 | 2409 ft | 169 kts | 264° |
| 2026-05-03 23:46 | -6.21941 | 107.00886 | 2244 ft | 160 kts | 264° |
| 2026-05-03 23:47 | -6.22028 | 106.99804 | 2122 ft | 151 kts | 264° |
| 2026-05-03 23:47 | -6.22249 | 106.98790 | 1955 ft | 148 kts | 243° |
| 2026-05-03 23:47 | -6.22674 | 106.97857 | 1734 ft | 146 kts | 245° |
| 2026-05-03 23:47 | -6.23084 | 106.96938 | 1536 ft | 145 kts | 245° |
| 2026-05-03 23:48 | -6.23503 | 106.96012 | 1343 ft | 145 kts | 245° |
| 2026-05-03 23:48 | -6.23922 | 106.95091 | 1166 ft | 144 kts | 245° |
| 2026-05-03 23:48 | -6.24339 | 106.94178 | 989 ft | 144 kts | 245° |
| 2026-05-03 23:48 | -6.24752 | 106.93268 | 781 ft | 143 kts | 245° |
| 2026-05-03 23:49 | -6.25171 | 106.92364 | 591 ft | 142 kts | 245° |
| 2026-05-03 23:49 | -6.25586 | 106.91463 | 395 ft | 142 kts | 245° |
| 2026-05-03 23:49 | -6.25995 | 106.90561 | 205 ft | 142 kts | 245° |
| 2026-05-03 23:49 | -6.26398 | 106.89680 | 95 ft | 128 kts | 245° |
| 2026-05-03 23:50 | -6.26700 | 106.89024 | 97 ft | 78 kts | 244° |
| 2026-05-03 23:50 | -6.26828 | 106.88750 | 95 ft | 59 kts | 245° |
| 2026-05-03 23:50 | -6.26879 | 106.88536 | 93 ft | 13 kts | 322° |
| 2026-05-03 23:50 | -6.26801 | 106.88498 | 96 ft | 11 kts | 335° |
| 2026-05-03 23:51 | -6.26737 | 106.88486 | 94 ft | 9 kts | 25° |
| 2026-05-03 23:51 | -6.26708 | 106.88533 | 96 ft | 7 kts | 65° |
| 2026-05-03 23:51 | -6.26689 | 106.88576 | 95 ft | 6 kts | 65° |
| 2026-05-03 23:51 | -6.26671 | 106.88611 | 95 ft | 5 kts | 51° |
| 2026-05-03 23:52 | -6.26645 | 106.88616 | 95 ft | 3 kts | 349° |
| 2026-05-03 23:52 | -6.26628 | 106.88610 | 95 ft | 2 kts | 336° |
| 2026-05-03 23:52 | -6.26617 | 106.88605 | 95 ft | 1 kts | 335° |
| 2026-05-03 23:52 | -6.26613 | 106.88603 | 95 ft | 0 kts | 336° |